createdAt,value
2019-04-26T00:00:52.094Z,4.70
2019-04-26T00:03:27.200Z,4.60
2019-04-26T00:05:57.362Z,4.87
2019-04-26T00:08:26.891Z,4.53
2019-04-26T00:11:22.374Z,4.27
2019-04-26T00:14:10.916Z,4.23
2019-04-26T00:16:54.079Z,4.77
2019-04-26T00:19:24.125Z,4.93
2019-04-26T00:21:54.067Z,5.30
2019-04-26T00:24:24.283Z,7.10
2019-04-26T00:26:53.777Z,5.60
2019-04-26T00:29:23.676Z,5.70
2019-04-26T00:31:53.187Z,5.87
2019-04-26T00:34:22.677Z,6.23
2019-04-26T00:36:52.204Z,6.63
2019-04-26T00:39:23.229Z,6.10
2019-04-26T00:41:53.247Z,6.77
2019-04-26T00:44:22.891Z,5.40
2019-04-26T00:46:53.955Z,5.80
2019-04-26T00:49:24.050Z,6.77
2019-04-26T00:51:54.200Z,6.30
2019-04-26T00:54:24.906Z,5.57
2019-04-26T00:56:55.426Z,6.10
2019-04-26T00:59:25.966Z,7.13
2019-04-26T01:02:00.583Z,5.90
2019-04-26T01:04:30.068Z,6.47
2019-04-26T01:07:00.105Z,6.83
2019-04-26T01:09:30.287Z,6.90
2019-04-26T01:11:59.794Z,6.63
2019-04-26T01:14:29.321Z,7.90
2019-04-26T01:16:59.511Z,7.23
2019-04-26T01:19:30.638Z,8.57
2019-04-26T01:22:03.802Z,7.63
2019-04-26T01:24:35.722Z,7.77
2019-04-26T01:27:06.778Z,7.63
2019-04-26T01:29:38.215Z,8.73
2019-04-26T01:32:11.702Z,9.63
2019-04-26T01:34:43.974Z,8.30
2019-04-26T01:37:13.875Z,9.63
2019-04-26T01:39:49.199Z,9.50
2019-04-26T01:42:37.702Z,10.40
2019-04-26T01:45:13.594Z,10.07
2019-04-26T01:47:43.344Z,9.27
2019-04-26T01:50:14.616Z,9.23
2019-04-26T01:52:45.303Z,9.23
2019-04-26T01:55:16.134Z,9.50
2019-04-26T01:57:45.974Z,10.20
2019-04-26T02:00:31.808Z,10.67
2019-04-26T02:03:05.223Z,11.13
2019-04-26T02:05:34.787Z,11.10
2019-04-26T02:08:04.369Z,11.30
2019-04-26T02:10:33.967Z,11.20
2019-04-26T02:13:04.028Z,10.63
2019-04-26T02:15:34.843Z,11.00
2019-04-26T02:18:05.080Z,10.80
2019-04-26T02:21:21.254Z,12.40
2019-04-26T02:23:59.004Z,13.17
2019-04-26T02:26:36.227Z,12.53
2019-04-26T02:29:10.938Z,12.27
2019-04-26T02:31:43.517Z,14.43
2019-04-26T02:34:13.926Z,14.67
2019-04-26T02:36:56.878Z,14.43
2019-04-26T02:39:23.599Z,14.73
2019-04-26T02:41:56.984Z,14.37
2019-04-26T02:44:36.214Z,14.03
2019-04-26T02:47:35.072Z,15.07
2019-04-26T02:50:08.456Z,13.27
2019-04-26T02:52:47.979Z,14.87
2019-04-26T02:55:42.692Z,15.37
2019-04-26T02:58:12.762Z,14.27
2019-04-26T03:00:42.807Z,16.83
2019-04-26T03:03:14.144Z,15.47
2019-04-26T03:05:45.948Z,16.47
2019-04-26T03:08:20.315Z,15.20
2019-04-26T03:11:06.894Z,17.13
2019-04-26T03:13:46.015Z,15.80
2019-04-26T03:16:41.514Z,15.33
2019-04-26T03:19:36.201Z,16.93
2019-04-26T03:22:42.131Z,15.20
2019-04-26T03:25:40.661Z,14.60
2019-04-26T03:29:03.433Z,15.73
2019-04-26T03:32:04.712Z,17.90
2019-04-26T03:34:55.282Z,15.13
2019-04-26T03:37:58.560Z,16.03
2019-04-26T03:40:47.888Z,14.23
2019-04-26T03:44:09.211Z,15.17
2019-04-26T03:46:51.974Z,14.20
2019-04-26T03:50:07.420Z,14.57
2019-04-26T03:53:19.431Z,13.37
2019-04-26T03:56:17.188Z,14.83
2019-04-26T03:59:28.396Z,15.00
2019-04-26T04:02:11.531Z,15.20
2019-04-26T04:05:04.291Z,17.00
2019-04-26T04:07:43.223Z,14.77
2019-04-26T04:10:12.338Z,13.17
2019-04-26T04:13:03.596Z,15.53
2019-04-26T04:15:41.923Z,15.03
2019-04-26T04:18:17.852Z,13.30
2019-04-26T04:21:25.024Z,14.37
2019-04-26T04:24:22.964Z,13.77
2019-04-26T04:27:28.944Z,12.60
2019-04-26T04:30:24.663Z,11.47
2019-04-26T04:33:23.846Z,12.00
2019-04-26T04:35:58.758Z,10.63
2019-04-26T04:39:10.824Z,11.20
2019-04-26T04:41:35.288Z,10.70
2019-04-26T04:44:23.937Z,11.23
2019-04-26T04:47:31.061Z,11.93
2019-04-26T04:50:47.573Z,10.40
2019-04-26T04:53:38.498Z,10.87
2019-04-26T04:56:47.948Z,11.20
2019-04-26T04:59:25.267Z,10.00
2019-04-26T05:02:44.907Z,10.90
2019-04-26T05:06:07.820Z,12.63
2019-04-26T05:08:51.674Z,11.77
2019-04-26T05:11:30.251Z,11.40
2019-04-26T05:14:14.271Z,10.30
2019-04-26T05:17:12.467Z,10.20
2019-04-26T05:20:15.225Z,11.23
2019-04-26T05:23:43.312Z,10.47
2019-04-26T05:27:27.768Z,10.27
2019-04-26T05:30:59.838Z,12.10
2019-04-26T05:34:05.141Z,10.63
2019-04-26T05:36:47.807Z,11.17
2019-04-26T05:39:27.593Z,10.53
2019-04-26T05:42:56.410Z,13.93
2019-04-26T05:45:58.078Z,11.23
2019-04-26T05:48:43.525Z,11.27
2019-04-26T05:52:03.811Z,12.00
2019-04-26T05:55:06.774Z,13.10
2019-04-26T05:58:03.750Z,13.23
2019-04-26T06:01:17.231Z,12.70
2019-04-26T06:04:31.781Z,14.57
2019-04-26T06:07:37.510Z,14.00
2019-04-26T06:10:32.583Z,14.53
2019-04-26T06:13:31.158Z,14.80
2019-04-26T06:16:15.824Z,16.10
2019-04-26T06:19:13.131Z,12.90
2019-04-26T06:22:00.127Z,15.40
2019-04-26T06:25:06.094Z,14.60
2019-04-26T06:28:07.028Z,14.80
2019-04-26T06:30:57.703Z,13.93
2019-04-26T06:33:55.152Z,14.77
2019-04-26T06:36:34.865Z,15.73
2019-04-26T06:39:38.568Z,17.00
2019-04-26T06:42:50.404Z,21.50
2019-04-26T06:46:05.203Z,16.07
2019-04-26T06:49:13.943Z,16.80
2019-04-26T06:51:49.902Z,17.17
2019-04-26T06:54:42.284Z,17.33
2019-04-26T06:57:31.566Z,17.87
2019-04-26T07:00:22.956Z,17.67
2019-04-26T07:03:32.800Z,18.67
2019-04-26T07:06:06.574Z,16.97
2019-04-26T07:08:57.794Z,21.40
2019-04-26T07:12:26.165Z,18.90
2019-04-26T07:15:09.683Z,19.17
2019-04-26T07:18:06.677Z,20.47
2019-04-26T07:20:49.220Z,19.77
2019-04-26T07:23:55.478Z,18.87
2019-04-26T07:27:01.453Z,20.67
2019-04-26T07:29:47.236Z,20.83
2019-04-26T07:32:28.432Z,21.40
2019-04-26T07:35:18.530Z,19.30
2019-04-26T07:38:53.351Z,20.97
2019-04-26T07:42:01.578Z,19.07
2019-04-26T07:45:01.980Z,20.00
2019-04-26T07:48:18.022Z,18.77
2019-04-26T07:51:27.144Z,16.73
2019-04-26T07:54:42.146Z,17.90
2019-04-26T07:58:11.170Z,12.20
2019-04-26T08:00:48.511Z,12.73
2019-04-26T08:03:43.636Z,13.77
2019-04-26T08:06:19.346Z,11.60
2019-04-26T08:08:55.788Z,12.37
2019-04-26T08:11:43.754Z,11.20
2019-04-26T08:14:17.634Z,11.93
2019-04-26T08:17:21.382Z,11.53
2019-04-26T08:20:02.117Z,13.60
2019-04-26T08:22:35.262Z,12.17
2019-04-26T08:25:06.887Z,13.00
2019-04-26T08:27:39.308Z,14.17
2019-04-26T08:30:18.927Z,12.40
2019-04-26T08:32:54.943Z,13.03
2019-04-26T08:35:30.894Z,12.33
2019-04-26T08:38:07.987Z,13.83
2019-04-26T08:40:38.239Z,13.70
2019-04-26T08:43:27.274Z,14.53
2019-04-26T08:46:18.578Z,15.70
2019-04-26T08:49:15.139Z,14.90
2019-04-26T08:51:47.275Z,15.30
2019-04-26T08:54:26.710Z,16.23
2019-04-26T08:57:03.583Z,14.93
2019-04-26T08:59:38.315Z,16.53
2019-04-26T09:02:25.302Z,16.33
2019-04-26T09:05:14.710Z,16.50
2019-04-26T09:07:47.542Z,15.73
2019-04-26T09:10:19.350Z,15.53
2019-04-26T09:12:51.831Z,17.13
2019-04-26T09:15:41.903Z,16.00
2019-04-26T09:18:11.428Z,16.47
2019-04-26T09:20:42.875Z,17.23
2019-04-26T09:23:40.190Z,16.30
2019-04-26T09:26:12.524Z,15.70
2019-04-26T09:28:58.795Z,15.37
2019-04-26T09:31:40.299Z,17.50
2019-04-26T09:34:11.526Z,17.00
2019-04-26T09:36:41.126Z,15.20
2019-04-26T09:39:12.335Z,14.10
2019-04-26T09:41:41.835Z,16.53
2019-04-26T09:44:30.393Z,14.17
2019-04-26T09:47:37.191Z,14.27
2019-04-26T09:50:21.198Z,15.07
2019-04-26T09:52:51.612Z,13.40
2019-04-26T09:55:21.143Z,15.23
2019-04-26T09:57:53.474Z,15.83
2019-04-26T10:00:26.031Z,15.27
2019-04-26T10:02:55.567Z,14.50
2019-04-26T10:05:25.106Z,14.67
2019-04-26T10:07:54.597Z,15.10
2019-04-26T10:10:25.713Z,14.40
2019-04-26T10:13:01.809Z,13.70
2019-04-26T10:15:41.412Z,16.33
2019-04-26T10:18:10.886Z,13.73
2019-04-26T10:20:40.393Z,15.40
2019-04-26T10:23:09.915Z,15.20
2019-04-26T10:25:39.440Z,15.63
2019-04-26T10:28:11.884Z,15.83
2019-04-26T10:30:42.357Z,17.03
2019-04-26T10:33:11.270Z,15.70
2019-04-26T10:35:41.215Z,16.67
2019-04-26T10:38:10.759Z,15.63
2019-04-26T10:40:40.445Z,15.73
2019-04-26T10:43:11.943Z,15.57
2019-04-26T10:45:41.443Z,14.97
2019-04-26T10:48:14.031Z,14.70
2019-04-26T10:50:42.128Z,13.60
2019-04-26T10:53:39.876Z,13.17
2019-04-26T10:56:37.357Z,12.83
2019-04-26T10:59:13.535Z,13.00
2019-04-26T11:01:43.227Z,13.03
2019-04-26T11:04:13.304Z,11.90
2019-04-26T11:06:42.895Z,12.40
2019-04-26T11:09:12.401Z,12.07
2019-04-26T11:11:41.906Z,12.13
2019-04-26T11:14:11.876Z,11.70
2019-04-26T11:16:42.267Z,12.13
2019-04-26T11:19:11.913Z,11.43
2019-04-26T11:21:41.412Z,11.90
2019-04-26T11:24:10.960Z,12.40
2019-04-26T11:26:41.558Z,10.53
2019-04-26T11:29:11.091Z,10.73
2019-04-26T11:31:40.610Z,12.07
2019-04-26T11:34:10.519Z,11.47
2019-04-26T11:36:41.817Z,11.40
2019-04-26T11:39:13.554Z,12.00
2019-04-26T11:41:43.180Z,10.57
2019-04-26T11:44:13.181Z,11.00
2019-04-26T11:46:45.111Z,11.60
2019-04-26T11:49:13.864Z,12.07
2019-04-26T11:51:44.556Z,11.97
2019-04-26T11:54:16.954Z,12.18
2019-04-26T11:56:45.871Z,12.07
2019-04-26T11:59:17.555Z,11.40
2019-04-26T12:01:47.483Z,10.97
2019-04-26T12:04:24.139Z,11.10
2019-04-26T12:06:58.331Z,12.30
2019-04-26T12:09:38.718Z,11.03
2019-04-26T12:12:09.123Z,10.57
2019-04-26T12:14:39.415Z,10.93
2019-04-26T12:17:08.914Z,10.63
2019-04-26T12:19:38.466Z,10.43
2019-04-26T12:22:09.615Z,11.27
2019-04-26T12:24:39.110Z,12.25
2019-04-26T12:27:10.305Z,11.20
2019-04-26T12:29:39.774Z,10.60
2019-04-26T12:32:09.267Z,10.93
2019-04-26T12:34:38.791Z,11.00
2019-04-26T12:37:08.299Z,10.87
2019-04-26T12:39:38.322Z,12.57
2019-04-26T12:42:12.389Z,10.90
2019-04-26T12:44:47.457Z,10.63
2019-04-26T12:47:21.222Z,10.37
2019-04-26T12:49:54.466Z,11.77
2019-04-26T12:52:22.832Z,11.73
2019-04-26T12:54:52.899Z,10.53
2019-04-26T12:57:22.427Z,11.13
2019-04-26T12:59:52.045Z,10.17
2019-04-26T13:02:22.217Z,9.67
2019-04-26T13:04:51.737Z,10.03
2019-04-26T13:07:24.356Z,10.23
2019-04-26T13:10:11.919Z,10.00
2019-04-26T13:13:00.371Z,8.67
2019-04-26T13:16:09.783Z,8.37
2019-04-26T13:18:41.253Z,9.43
2019-04-26T13:21:10.470Z,9.97
2019-04-26T13:23:40.003Z,9.40
2019-04-26T13:26:09.556Z,10.83
2019-04-26T13:28:39.119Z,10.40
2019-04-26T13:31:08.631Z,10.17
2019-04-26T13:33:38.151Z,9.93
2019-04-26T13:36:08.226Z,10.30
2019-04-26T13:38:39.320Z,10.33
2019-04-26T13:41:09.538Z,9.30
2019-04-26T13:43:39.063Z,9.83
2019-04-26T13:46:18.080Z,8.13
2019-04-26T13:48:59.014Z,7.93
2019-04-26T13:51:30.191Z,8.83
2019-04-26T13:53:59.727Z,8.30
2019-04-26T13:56:32.054Z,8.90
2019-04-26T13:59:00.393Z,8.20
2019-04-26T14:01:30.184Z,9.33
2019-04-26T14:04:02.431Z,8.90
2019-04-26T14:06:31.013Z,9.53
2019-04-26T14:09:02.864Z,9.43
2019-04-26T14:11:31.787Z,10.77
2019-04-26T14:14:01.833Z,10.43
2019-04-26T14:16:31.434Z,10.30
2019-04-26T14:19:01.335Z,9.67
2019-04-26T14:21:33.262Z,8.57
2019-04-26T14:24:23.907Z,9.33
2019-04-26T14:26:55.673Z,9.07
2019-04-26T14:29:28.433Z,9.27
2019-04-26T14:31:56.364Z,8.87
2019-04-26T14:34:25.990Z,10.60
2019-04-26T14:37:05.787Z,9.17
2019-04-26T14:39:35.251Z,8.77
2019-04-26T14:41:58.371Z,9.17
2019-04-26T14:44:31.212Z,8.97
2019-04-26T14:47:07.170Z,9.43
2019-04-26T14:49:38.905Z,9.73
2019-04-26T14:52:01.702Z,9.33
2019-04-26T14:54:31.547Z,8.30
2019-04-26T14:57:07.723Z,8.10
2019-04-26T14:59:48.695Z,7.90
2019-04-26T15:02:49.203Z,7.67
2019-04-26T15:05:33.814Z,8.70
2019-04-26T15:08:09.310Z,7.93
2019-04-26T15:10:43.978Z,8.37
2019-04-26T15:13:16.991Z,8.40
2019-04-26T15:15:38.284Z,8.07
2019-04-26T15:18:07.820Z,9.03
2019-04-26T15:20:37.312Z,8.43
2019-04-26T15:23:07.000Z,8.33
2019-04-26T15:25:36.839Z,8.20
2019-04-26T15:28:06.769Z,8.40
2019-04-26T15:30:43.332Z,8.67
2019-04-26T15:33:12.218Z,9.13
2019-04-26T15:35:42.065Z,8.87
2019-04-26T15:38:11.839Z,9.30
2019-04-26T15:41:11.808Z,8.43
2019-04-26T15:43:54.667Z,9.03
2019-04-26T15:47:05.143Z,8.63
2019-04-26T15:49:55.003Z,9.23
2019-04-26T15:52:24.630Z,8.73
2019-04-26T15:54:58.906Z,9.30
2019-04-26T15:57:31.189Z,9.03
2019-04-26T15:59:58.034Z,12.37
2019-04-26T16:02:27.788Z,8.20
2019-04-26T16:04:57.346Z,8.53
2019-04-26T16:07:28.774Z,9.50
2019-04-26T16:09:58.071Z,10.97
2019-04-26T16:12:27.642Z,8.63
2019-04-26T16:14:57.164Z,9.17
2019-04-26T16:17:26.686Z,8.43
2019-04-26T16:20:00.069Z,8.40
2019-04-26T16:22:30.118Z,9.80
2019-04-26T16:25:03.989Z,9.43
2019-04-26T16:27:32.324Z,9.83
2019-04-26T16:30:20.824Z,8.77
2019-04-26T16:33:03.070Z,8.83
2019-04-26T16:35:33.049Z,9.20
2019-04-26T16:38:22.913Z,8.50
2019-04-26T16:40:54.999Z,8.43
2019-04-26T16:43:36.687Z,8.93
2019-04-26T16:45:55.215Z,9.13
2019-04-26T16:48:25.796Z,9.10
2019-04-26T16:50:55.434Z,8.90
2019-04-26T16:53:43.713Z,12.43
2019-04-26T16:55:56.223Z,9.77
2019-04-26T16:58:30.820Z,8.80
2019-04-26T17:00:58.172Z,9.23
2019-04-26T17:03:28.262Z,9.67
2019-04-26T17:06:05.235Z,10.10
2019-04-26T17:08:29.142Z,10.40
2019-04-26T17:11:00.681Z,10.70
2019-04-26T17:13:31.013Z,11.27
2019-04-26T17:16:02.277Z,10.50
2019-04-26T17:18:32.375Z,10.77
2019-04-26T17:21:02.569Z,10.13
2019-04-26T17:23:49.752Z,10.73
2019-04-26T17:26:29.278Z,10.40
2019-04-26T17:28:58.332Z,10.77
2019-04-26T17:31:28.259Z,10.20
2019-04-26T17:33:57.757Z,11.40
2019-04-26T17:36:27.267Z,10.70
2019-04-26T17:38:57.927Z,10.67
2019-04-26T17:41:27.750Z,10.90
2019-04-26T17:44:08.491Z,11.07
2019-04-26T17:46:28.710Z,10.90
2019-04-26T17:49:00.415Z,10.87
2019-04-26T17:51:32.474Z,10.70
2019-04-26T17:54:21.155Z,10.80
2019-04-26T17:56:35.366Z,10.33
2019-04-26T17:59:08.966Z,11.63
2019-04-26T18:01:45.360Z,10.40
2019-04-26T18:04:06.118Z,12.40
2019-04-26T18:06:35.635Z,11.57
2019-04-26T18:09:07.047Z,12.40
2019-04-26T18:11:37.475Z,12.27
2019-04-26T18:14:20.440Z,11.10
2019-04-26T18:16:39.884Z,11.73
2019-04-26T18:19:20.214Z,12.30
2019-04-26T18:22:14.685Z,11.57
2019-04-26T18:24:44.598Z,11.93
2019-04-26T18:27:14.777Z,13.10
2019-04-26T18:29:45.172Z,12.30
2019-04-26T18:32:14.706Z,11.80
2019-04-26T18:34:44.214Z,13.50
2019-04-26T18:37:13.750Z,13.00
2019-04-26T18:39:43.338Z,14.07
2019-04-26T18:42:13.954Z,13.40
2019-04-26T18:44:47.907Z,13.67
2019-04-26T18:47:26.280Z,14.20
2019-04-26T18:49:58.286Z,14.27
2019-04-26T18:52:26.220Z,13.80
2019-04-26T18:55:21.382Z,16.10
2019-04-26T18:57:54.710Z,16.07
2019-04-26T19:00:29.448Z,13.80
2019-04-26T19:03:00.097Z,14.73
2019-04-26T19:05:30.197Z,14.53
2019-04-26T19:08:00.335Z,15.67
2019-04-26T19:10:34.155Z,16.43
2019-04-26T19:13:07.490Z,18.50
2019-04-26T19:15:56.002Z,16.40
2019-04-26T19:18:45.029Z,18.03
2019-04-26T19:21:32.345Z,17.97
2019-04-26T19:24:07.266Z,17.23
2019-04-26T19:26:35.090Z,18.80
2019-04-26T19:29:15.538Z,17.33
2019-04-26T19:31:36.445Z,17.50
2019-04-26T19:34:05.922Z,17.63
2019-04-26T19:36:35.458Z,17.23
2019-04-26T19:39:06.899Z,18.47
2019-04-26T19:41:36.438Z,18.90
2019-04-26T19:44:05.941Z,18.87
2019-04-26T19:46:45.110Z,23.10
2019-04-26T19:49:45.560Z,21.00
2019-04-26T19:52:24.051Z,20.60
2019-04-26T19:55:12.510Z,20.03
2019-04-26T19:58:09.800Z,21.33
2019-04-26T20:00:43.378Z,18.93
2019-04-26T20:03:15.192Z,22.40
2019-04-26T20:05:44.034Z,21.57
2019-04-26T20:08:14.122Z,20.13
2019-04-26T20:10:45.832Z,22.03
2019-04-26T20:13:16.289Z,21.30
2019-04-26T20:15:46.102Z,21.50
2019-04-26T20:18:17.630Z,21.73
2019-04-26T20:20:47.135Z,21.70
2019-04-26T20:23:19.526Z,21.67
2019-04-26T20:25:48.959Z,22.10
2019-04-26T20:28:18.449Z,23.77
2019-04-26T20:31:08.489Z,23.30
2019-04-26T20:33:37.842Z,25.23
2019-04-26T20:36:07.454Z,25.23
2019-04-26T20:38:43.707Z,23.97
2019-04-26T20:41:08.770Z,24.30
2019-04-26T20:43:46.088Z,25.63
2019-04-26T20:46:14.864Z,28.13
2019-04-26T20:48:42.647Z,25.50
2019-04-26T20:51:12.323Z,26.37
2019-04-26T20:53:43.788Z,24.80
2019-04-26T20:56:18.146Z,25.13
2019-04-26T20:58:46.981Z,29.53
2019-04-26T21:01:15.710Z,26.07
2019-04-26T21:03:46.088Z,26.63
2019-04-26T21:06:15.867Z,26.87
2019-04-26T21:08:45.438Z,27.57
2019-04-26T21:11:15.343Z,28.63
2019-04-26T21:13:44.842Z,28.00
2019-04-26T21:16:15.503Z,26.47
2019-04-26T21:18:45.260Z,27.23
2019-04-26T21:21:16.185Z,26.13
2019-04-26T21:23:48.232Z,26.63
2019-04-26T21:26:29.094Z,26.90
2019-04-26T21:29:35.601Z,26.60
2019-04-26T21:32:30.786Z,26.20
2019-04-26T21:35:03.618Z,24.43
2019-04-26T21:37:49.517Z,24.17
2019-04-26T21:40:41.075Z,25.17
2019-04-26T21:43:10.590Z,23.63
2019-04-26T21:45:40.086Z,24.00
2019-04-26T21:48:09.605Z,23.90
2019-04-26T21:50:39.469Z,24.33
2019-04-26T21:53:09.306Z,24.90
2019-04-26T21:55:39.134Z,23.50
2019-04-26T21:58:09.374Z,24.63
2019-04-26T22:00:56.718Z,27.10
2019-04-26T22:03:26.518Z,25.90
2019-04-26T22:05:56.340Z,27.13
2019-04-26T22:08:29.354Z,26.33
2019-04-26T22:10:58.956Z,27.03
2019-04-26T22:13:50.411Z,25.93
2019-04-26T22:16:48.055Z,25.90
2019-04-26T22:19:35.536Z,25.63
2019-04-26T22:22:37.435Z,26.00
2019-04-26T22:25:05.503Z,26.30
2019-04-26T22:27:35.139Z,28.50
2019-04-26T22:30:09.198Z,26.47
2019-04-26T22:32:38.842Z,25.30
2019-04-26T22:35:08.328Z,28.07
2019-04-26T22:37:41.318Z,27.57
2019-04-26T22:40:10.530Z,27.63
2019-04-26T22:42:43.844Z,26.30
2019-04-26T22:45:18.974Z,28.80
2019-04-26T22:47:54.361Z,27.63
2019-04-26T22:50:25.051Z,28.50
2019-04-26T22:52:54.915Z,27.60
2019-04-26T22:55:27.419Z,29.00
2019-04-26T22:57:56.143Z,26.20
2019-04-26T23:00:29.408Z,26.70
2019-04-26T23:03:05.461Z,26.97
2019-04-26T23:05:30.623Z,25.10
2019-04-26T23:08:01.100Z,25.60
2019-04-26T23:10:37.258Z,28.00
2019-04-26T23:13:13.215Z,27.73
2019-04-26T23:16:11.481Z,27.97
2019-04-26T23:19:00.423Z,27.77
2019-04-26T23:21:35.787Z,26.87
2019-04-26T23:24:05.282Z,29.97
2019-04-26T23:26:37.533Z,28.97
2019-04-26T23:29:08.149Z,29.37
2019-04-26T23:31:41.438Z,29.50
2019-04-26T23:34:09.234Z,30.03
2019-04-26T23:36:39.160Z,33.13
2019-04-26T23:39:12.192Z,31.70
2019-04-26T23:41:41.669Z,34.53
2019-04-26T23:44:13.220Z,33.20
2019-04-26T23:46:43.295Z,33.10
2019-04-26T23:49:14.475Z,34.57
2019-04-26T23:51:45.847Z,29.70
2019-04-26T23:54:16.228Z,30.13
2019-04-26T23:56:45.746Z,30.47
2019-04-26T23:59:20.863Z,29.73
